Time;durP1;ratioP1;P1;durP2;ratioP2;P2;SDS_P1;SDS_P2;PMS_P1;PMS_P2;Temp;Humidity;BMP_temperature;BMP_pressure;BME280_temperature;BME280_humidity;BME280_pressure;Samples;Min_cycle;Max_cycle;Signal;HPM_P1;HPM_P2
2021/05/22 00:00:47;;;;;;;2.65;1.05;;;16.70;93.70;;;;;;5089646;28;20189;-71
2021/05/22 00:03:14;;;;;;;2.55;1.00;;;16.70;93.70;;;;;;5070951;28;20216;-71
2021/05/22 00:05:41;;;;;;;1.80;1.08;;;16.70;93.80;;;;;;5091167;28;20224;-71
2021/05/22 00:08:07;;;;;;;2.30;1.00;;;16.60;93.80;;;;;;5086217;28;20221;-70
2021/05/22 00:10:33;;;;;;;1.85;1.15;;;16.70;93.80;;;;;;5091741;28;20204;-70
2021/05/22 00:12:59;;;;;;;1.30;1.00;;;16.60;93.80;;;;;;5083668;28;20200;-71
2021/05/22 00:15:26;;;;;;;2.00;1.33;;;16.60;93.90;;;;;;5087836;28;20220;-71
2021/05/22 00:17:52;;;;;;;2.55;1.08;;;16.60;93.90;;;;;;5077038;28;20194;-71
2021/05/22 00:20:19;;;;;;;2.45;0.90;;;16.60;94.00;;;;;;5077857;28;20221;-71
2021/05/22 00:22:45;;;;;;;2.42;1.00;;;16.50;94.00;;;;;;5071154;28;20206;-72
2021/05/22 00:25:13;;;;;;;2.92;1.30;;;16.60;94.10;;;;;;5071085;28;20202;-71
2021/05/22 00:27:39;;;;;;;1.52;1.02;;;16.50;94.10;;;;;;5080034;28;20225;-72
2021/05/22 00:30:08;;;;;;;1.30;0.90;;;16.50;94.10;;;;;;5071180;28;20190;-71
2021/05/22 00:32:34;;;;;;;1.48;1.20;;;16.50;94.20;;;;;;5077547;28;20197;-71
2021/05/22 00:35:00;;;;;;;1.25;0.90;;;16.50;94.20;;;;;;5071010;28;20578;-71
2021/05/22 00:37:27;;;;;;;1.25;0.90;;;16.50;94.30;;;;;;5074644;28;20201;-71
2021/05/22 00:39:54;;;;;;;2.40;1.25;;;16.50;94.40;;;;;;5090319;28;20197;-71
2021/05/22 00:42:20;;;;;;;1.33;1.23;;;16.40;94.40;;;;;;5078829;28;20202;-71
2021/05/22 00:45:06;;;;;;;2.22;1.17;;;16.40;94.40;;;;;;5079834;28;20198;-72
2021/05/22 00:47:33;;;;;;;2.75;1.17;;;16.40;94.60;;;;;;5084249;28;20642;-72
2021/05/22 00:49:59;;;;;;;1.92;1.00;;;16.40;94.50;;;;;;5075037;28;20557;-73
2021/05/22 00:52:25;;;;;;;4.68;1.55;;;16.40;94.60;;;;;;5070367;28;20198;-73
2021/05/22 00:54:53;;;;;;;1.40;0.90;;;16.40;94.60;;;;;;5088347;28;20209;-73
2021/05/22 00:57:19;;;;;;;1.65;1.55;;;16.30;94.70;;;;;;5088256;28;20197;-72
2021/05/22 00:59:46;;;;;;;1.05;0.82;;;16.30;94.60;;;;;;5074488;28;20214;-73
2021/05/22 01:02:20;;;;;;;2.13;0.82;;;16.30;94.70;;;;;;5077113;28;20201;-73
2021/05/22 01:04:46;;;;;;;1.88;1.00;;;16.30;94.80;;;;;;5089473;28;20243;-73
2021/05/22 01:07:13;;;;;;;2.13;1.23;;;16.30;94.80;;;;;;5085059;28;20426;-73
2021/05/22 01:09:41;;;;;;;2.33;1.30;;;16.20;94.80;;;;;;5070132;28;20680;-72
2021/05/22 01:12:10;;;;;;;1.77;0.93;;;16.20;94.80;;;;;;5077353;28;20310;-72
2021/05/22 01:14:42;;;;;;;1.83;1.17;;;16.20;94.90;;;;;;5081545;28;20201;-72
2021/05/22 01:17:08;;;;;;;1.38;1.00;;;16.20;95.00;;;;;;5071878;28;20642;-71
2021/05/22 01:19:40;;;;;;;1.60;0.98;;;16.20;95.00;;;;;;5087158;28;20201;-71
2021/05/22 01:22:07;;;;;;;1.13;0.82;;;16.10;95.00;;;;;;5084275;28;20684;-70
2021/05/22 01:24:42;;;;;;;1.17;0.95;;;16.10;95.00;;;;;;5070811;28;20198;-70
2021/05/22 01:27:10;;;;;;;2.35;0.90;;;16.10;95.10;;;;;;5080533;28;20230;-70
2021/05/22 01:29:37;;;;;;;2.03;1.13;;;16.10;95.20;;;;;;5086995;28;20224;-70
2021/05/22 01:32:03;;;;;;;2.47;1.33;;;16.10;95.60;;;;;;5088922;28;20193;-72
2021/05/22 01:34:29;;;;;;;3.75;1.00;;;16.00;95.20;;;;;;5069706;28;20202;-69
2021/05/22 01:36:55;;;;;;;1.67;0.85;;;16.00;95.30;;;;;;5081799;28;20194;-72
2021/05/22 01:39:22;;;;;;;1.95;1.17;;;16.00;95.40;;;;;;5089838;28;20198;-72
2021/05/22 01:41:48;;;;;;;2.45;1.20;;;16.10;95.50;;;;;;5086446;28;20202;-71
2021/05/22 01:44:16;;;;;;;1.50;0.90;;;16.00;95.50;;;;;;5085467;28;20201;-70
2021/05/22 01:46:43;;;;;;;3.10;1.23;;;15.90;95.50;;;;;;5079735;28;20654;-70
2021/05/22 01:49:12;;;;;;;5.88;1.30;;;15.90;95.50;;;;;;5084574;28;20263;-70
2021/05/22 01:51:40;;;;;;;2.85;1.33;;;15.90;95.60;;;;;;5074748;28;20194;-71
2021/05/22 01:54:07;;;;;;;1.60;0.85;;;15.90;95.60;;;;;;5077207;28;20198;-71
2021/05/22 01:56:34;;;;;;;2.60;1.38;;;15.90;95.70;;;;;;5079276;28;20201;-70
2021/05/22 01:59:00;;;;;;;3.15;1.10;;;15.90;95.70;;;;;;5089086;28;20550;-70
2021/05/22 02:01:27;;;;;;;2.17;1.05;;;15.90;95.70;;;;;;5079802;28;20275;-71
2021/05/22 02:03:57;;;;;;;1.00;0.73;;;15.90;95.80;;;;;;5081059;28;20202;-71
2021/05/22 02:06:25;;;;;;;3.47;1.33;;;15.80;95.80;;;;;;5083262;28;20209;-71
2021/05/22 02:08:56;;;;;;;2.15;1.00;;;15.80;95.80;;;;;;5083425;28;20322;-71
2021/05/22 02:11:24;;;;;;;4.47;1.25;;;15.80;95.80;;;;;;5085426;28;20209;-71
2021/05/22 02:13:52;;;;;;;3.15;1.27;;;15.80;95.90;;;;;;5073838;28;20267;-71
2021/05/22 02:16:23;;;;;;;2.55;1.10;;;15.80;96.00;;;;;;5076692;28;20194;-70
2021/05/22 02:18:52;;;;;;;2.80;1.10;;;15.80;96.00;;;;;;5073840;28;20202;-70
2021/05/22 02:21:19;;;;;;;3.80;1.33;;;15.80;96.10;;;;;;5084413;28;20194;-71
2021/05/22 02:23:47;;;;;;;2.10;0.90;;;15.80;96.10;;;;;;5088052;28;20205;-71
2021/05/22 02:26:13;;;;;;;2.55;1.08;;;15.70;96.10;;;;;;5086121;28;20641;-72
2021/05/22 02:28:42;;;;;;;1.77;1.15;;;15.70;96.20;;;;;;5083957;28;20294;-71
2021/05/22 02:31:09;;;;;;;3.65;1.17;;;15.70;96.30;;;;;;5073444;28;20204;-71
2021/05/22 02:33:37;;;;;;;1.70;1.10;;;15.60;96.30;;;;;;5073124;28;20194;-71
2021/05/22 02:36:05;;;;;;;3.95;1.80;;;15.60;96.30;;;;;;5073650;28;20297;-71
2021/05/22 02:38:36;;;;;;;1.40;1.00;;;15.60;96.30;;;;;;5081685;28;20190;-71
2021/05/22 02:41:06;;;;;;;2.42;1.38;;;15.60;96.40;;;;;;5092815;28;20200;-71
2021/05/22 02:43:33;;;;;;;2.53;1.23;;;15.60;96.50;;;;;;5074668;28;20190;-71
2021/05/22 02:46:02;;;;;;;2.13;1.05;;;15.60;96.60;;;;;;5082760;28;20223;-71
2021/05/22 02:48:32;;;;;;;2.00;1.08;;;15.60;96.60;;;;;;5075546;28;20214;-72
2021/05/22 02:51:00;;;;;;;2.20;1.33;;;15.50;96.50;;;;;;5079550;28;20205;-71
2021/05/22 02:53:29;;;;;;;1.52;1.00;;;15.50;96.70;;;;;;5089611;28;20201;-71
2021/05/22 02:55:56;;;;;;;1.38;1.08;;;15.50;96.70;;;;;;5092838;28;20205;-70
2021/05/22 02:58:24;;;;;;;1.70;1.20;;;15.50;96.70;;;;;;5092617;28;20202;-71
2021/05/22 03:00:50;;;;;;;2.25;1.40;;;15.50;96.70;;;;;;5086942;28;20764;-72
2021/05/22 03:03:18;;;;;;;3.55;0.90;;;15.50;96.70;;;;;;5078461;28;22206;-71
2021/05/22 03:05:44;;;;;;;1.10;0.90;;;15.50;96.80;;;;;;5083759;28;20201;-71
2021/05/22 03:08:11;;;;;;;3.88;1.30;;;15.50;96.90;;;;;;5076378;28;20218;-71
2021/05/22 03:10:38;;;;;;;5.53;1.10;;;15.40;96.80;;;;;;5079536;28;20185;-71
2021/05/22 03:13:05;;;;;;;2.65;1.00;;;15.40;96.80;;;;;;5078349;28;20194;-71
2021/05/22 03:15:32;;;;;;;1.75;1.00;;;15.40;96.80;;;;;;5077090;28;20276;-71
2021/05/22 03:17:58;;;;;;;1.48;0.85;;;15.40;96.80;;;;;;5090916;28;20205;-71
2021/05/22 03:20:24;;;;;;;1.58;0.82;;;15.40;96.90;;;;;;5087757;28;20192;-71
2021/05/22 03:22:50;;;;;;;1.70;1.13;;;15.40;97.00;;;;;;5083205;28;20665;-71
2021/05/22 03:25:17;;;;;;;1.40;1.00;;;15.30;96.90;;;;;;5083443;28;20315;-71
2021/05/22 03:27:44;;;;;;;1.90;1.00;;;15.40;97.00;;;;;;5076189;28;20237;-71
2021/05/22 03:30:11;;;;;;;2.97;1.67;;;15.30;96.90;;;;;;5085748;28;20247;-71
2021/05/22 03:32:37;;;;;;;1.80;1.05;;;15.30;97.00;;;;;;5089710;28;20197;-71
2021/05/22 03:35:05;;;;;;;2.20;0.98;;;15.30;97.00;;;;;;5080760;28;20547;-70
2021/05/22 03:37:32;;;;;;;2.97;1.20;;;15.30;97.00;;;;;;5088527;28;20197;-71
2021/05/22 03:39:58;;;;;;;2.20;1.00;;;15.30;97.00;;;;;;5091098;28;20629;-71
2021/05/22 03:42:24;;;;;;;2.70;1.10;;;15.30;97.00;;;;;;5073614;28;20210;-70
2021/05/22 03:44:51;;;;;;;1.00;0.80;;;15.30;97.10;;;;;;5090542;28;20204;-71
2021/05/22 03:47:17;;;;;;;2.00;1.00;;;15.30;97.00;;;;;;5086002;28;20197;-71
2021/05/22 03:49:43;;;;;;;1.90;0.80;;;15.30;97.10;;;;;;5080754;28;20225;-69
2021/05/22 03:52:09;;;;;;;2.47;1.67;;;15.20;97.00;;;;;;5090801;28;20216;-70
2021/05/22 03:54:36;;;;;;;2.60;0.80;;;15.20;97.00;;;;;;5088866;28;20201;-70
2021/05/22 03:57:02;;;;;;;1.52;0.93;;;15.20;97.00;;;;;;5089759;28;20198;-71
2021/05/22 03:59:28;;;;;;;1.20;1.05;;;15.20;97.00;;;;;;5078819;28;20201;-71
2021/05/22 04:01:55;;;;;;;3.80;1.50;;;15.20;97.10;;;;;;5073155;28;20198;-70
2021/05/22 04:04:21;;;;;;;1.27;1.02;;;15.20;97.10;;;;;;5080391;28;20663;-71
2021/05/22 04:06:48;;;;;;;3.20;1.10;;;15.20;97.00;;;;;;5089310;28;20250;-70
2021/05/22 04:09:14;;;;;;;2.45;1.00;;;15.20;97.10;;;;;;5075210;28;20218;-71
2021/05/22 04:11:40;;;;;;;1.75;1.10;;;15.20;97.10;;;;;;5083252;28;20197;-71
2021/05/22 04:14:06;;;;;;;2.25;1.00;;;15.20;97.10;;;;;;5085336;28;20205;-71
2021/05/22 04:16:32;;;;;;;1.58;0.88;;;15.20;97.10;;;;;;5090709;28;20247;-70
2021/05/22 04:19:00;;;;;;;1.52;0.80;;;15.20;97.10;;;;;;5076540;28;20642;-71
2021/05/22 04:21:26;;;;;;;1.98;1.30;;;15.20;97.10;;;;;;5072874;28;20198;-72
2021/05/22 04:23:52;;;;;;;1.52;1.02;;;15.20;97.10;;;;;;5086905;28;20198;-71
2021/05/22 04:26:18;;;;;;;3.15;1.15;;;15.20;97.10;;;;;;5081711;28;20202;-72
2021/05/22 04:28:45;;;;;;;2.70;0.98;;;15.20;97.10;;;;;;5085669;28;20240;-72
2021/05/22 04:31:11;;;;;;;1.83;1.00;;;15.10;97.20;;;;;;5089348;28;20579;-72
2021/05/22 04:33:37;;;;;;;2.05;0.90;;;15.10;97.10;;;;;;5090567;28;20198;-71
2021/05/22 04:36:06;;;;;;;1.50;1.00;;;15.10;97.10;;;;;;5090313;28;20202;-71
2021/05/22 04:38:32;;;;;;;2.65;1.10;;;15.10;97.10;;;;;;5072953;28;20198;-71
2021/05/22 04:40:58;;;;;;;2.33;1.17;;;15.20;97.20;;;;;;5088095;28;20268;-71
2021/05/22 04:43:25;;;;;;;3.75;0.88;;;15.10;97.20;;;;;;5076247;28;20221;-71
2021/05/22 04:45:51;;;;;;;1.58;0.93;;;15.10;97.20;;;;;;5070540;28;20203;-71
2021/05/22 04:48:17;;;;;;;2.58;0.90;;;15.10;97.10;;;;;;5077337;28;20221;-71
2021/05/22 04:50:43;;;;;;;2.05;1.13;;;15.10;97.20;;;;;;5075065;28;20198;-71
2021/05/22 04:53:10;;;;;;;1.50;1.08;;;15.10;97.20;;;;;;5082695;28;20226;-71
2021/05/22 04:55:37;;;;;;;1.55;1.00;;;15.10;97.20;;;;;;5090614;28;20202;-72
2021/05/22 04:58:03;;;;;;;3.08;1.13;;;15.10;97.20;;;;;;5079405;28;20225;-71
2021/05/22 05:00:30;;;;;;;4.35;1.25;;;15.10;97.30;;;;;;5089381;28;20250;-71
2021/05/22 05:02:56;;;;;;;3.33;1.40;;;15.10;97.30;;;;;;5085248;28;20197;-71
2021/05/22 05:05:22;;;;;;;3.60;1.30;;;15.10;97.30;;;;;;5091061;28;20225;-71
2021/05/22 05:07:49;;;;;;;1.80;1.00;;;15.10;97.30;;;;;;5086796;28;20208;-71
2021/05/22 05:10:16;;;;;;;1.10;0.90;;;15.10;97.30;;;;;;5091130;28;20193;-70
2021/05/22 05:12:42;;;;;;;3.30;1.25;;;15.10;97.30;;;;;;5079982;28;20268;-70
2021/05/22 05:15:09;;;;;;;2.85;1.45;;;15.10;97.40;;;;;;5079014;28;20209;-71
2021/05/22 05:17:35;;;;;;;2.05;1.00;;;15.10;97.40;;;;;;5082184;28;20206;-70
2021/05/22 05:20:01;;;;;;;2.33;1.10;;;15.10;97.40;;;;;;5083188;28;20203;-70
2021/05/22 05:22:28;;;;;;;3.35;1.38;;;15.10;97.40;;;;;;5075881;28;21519;-71
2021/05/22 05:24:54;;;;;;;3.75;1.10;;;15.10;97.40;;;;;;5087242;28;20851;-71
2021/05/22 05:27:22;;;;;;;2.42;0.90;;;15.10;97.40;;;;;;5089768;28;20229;-70
2021/05/22 05:29:48;;;;;;;1.40;1.15;;;15.20;97.40;;;;;;5089087;28;20229;-71
2021/05/22 05:32:15;;;;;;;1.45;0.75;;;15.10;97.40;;;;;;5079764;28;20201;-71
2021/05/22 05:34:41;;;;;;;1.90;1.00;;;15.10;97.40;;;;;;5080689;28;20724;-72
2021/05/22 05:37:08;;;;;;;2.05;1.30;;;15.10;97.50;;;;;;5089172;28;20193;-72
2021/05/22 05:39:34;;;;;;;2.53;0.93;;;15.10;97.60;;;;;;5072494;28;20198;-70
2021/05/22 05:42:00;;;;;;;2.10;1.30;;;15.00;97.50;;;;;;5082404;28;20197;-70
2021/05/22 05:44:29;;;;;;;2.50;1.30;;;15.10;97.70;;;;;;5078783;28;20554;-70
2021/05/22 05:46:55;;;;;;;1.77;1.08;;;15.10;97.70;;;;;;5071071;28;20190;-71
2021/05/22 05:49:22;;;;;;;2.15;1.20;;;15.10;97.70;;;;;;5079914;28;20214;-70
2021/05/22 05:51:48;;;;;;;4.80;1.30;;;15.10;97.90;;;;;;5078759;28;20197;-70
2021/05/22 05:54:14;;;;;;;1.58;1.00;;;15.10;97.90;;;;;;5072676;28;20193;-70
2021/05/22 05:56:40;;;;;;;2.83;1.30;;;15.00;98.10;;;;;;5089864;28;20283;-70
2021/05/22 05:59:07;;;;;;;1.70;1.10;;;15.00;98.30;;;;;;5088262;28;20197;-70
2021/05/22 06:01:34;;;;;;;3.33;1.23;;;15.00;98.80;;;;;;5082632;28;20202;-70
2021/05/22 06:04:00;;;;;;;1.83;1.05;;;15.00;98.30;;;;;;5077693;28;20206;-70
2021/05/22 06:06:27;;;;;;;1.65;1.23;;;15.10;98.40;;;;;;5075886;28;20738;-70
2021/05/22 06:08:53;;;;;;;2.13;1.42;;;15.10;98.20;;;;;;5075591;28;20217;-69
2021/05/22 06:11:20;;;;;;;2.22;1.10;;;15.10;98.20;;;;;;5074424;28;20186;-71
2021/05/22 06:13:46;;;;;;;5.50;1.45;;;15.20;98.10;;;;;;5080887;28;20201;-70
2021/05/22 06:16:20;;;;;;;2.42;1.27;;;15.20;98.10;;;;;;5078766;28;20557;-70
2021/05/22 06:18:48;;;;;;;3.70;1.20;;;15.20;98.00;;;;;;5069493;28;20593;-70
2021/05/22 06:21:15;;;;;;;2.15;1.50;;;15.20;98.20;;;;;;5074507;28;20198;-70
2021/05/22 06:23:41;;;;;;;1.80;1.00;;;15.10;98.40;;;;;;5083726;28;20197;-70
2021/05/22 06:26:07;;;;;;;4.40;1.85;;;15.10;98.50;;;;;;5081806;28;20629;-71
2021/05/22 06:28:34;;;;;;;2.97;1.42;;;15.10;98.90;;;;;;5078525;28;20248;-71
2021/05/22 06:31:00;;;;;;;2.15;1.30;;;15.10;98.80;;;;;;5078167;28;21016;-71
2021/05/22 06:33:27;;;;;;;1.83;1.20;;;15.10;99.20;;;;;;5084989;28;20618;-71
2021/05/22 06:35:54;;;;;;;3.15;1.77;;;15.00;99.40;;;;;;5085381;28;20198;-71
2021/05/22 06:38:21;;;;;;;3.10;1.23;;;15.00;99.50;;;;;;5082769;28;20209;-70
2021/05/22 06:40:47;;;;;;;4.80;1.35;;;15.10;99.60;;;;;;5087632;28;20202;-70
2021/05/22 06:43:14;;;;;;;6.20;1.27;;;15.10;99.70;;;;;;5085932;28;20204;-70
2021/05/22 06:45:42;;;;;;;3.47;1.35;;;15.10;99.50;;;;;;5078599;28;20632;-70
2021/05/22 06:48:09;;;;;;;3.17;1.40;;;15.20;99.20;;;;;;5073502;28;20227;-70
2021/05/22 06:50:36;;;;;;;3.85;1.38;;;15.20;99.30;;;;;;5079051;28;20638;-70
2021/05/22 06:53:04;;;;;;;1.42;1.00;;;15.20;99.30;;;;;;5073120;28;20240;-70
2021/05/22 06:55:30;;;;;;;1.63;1.00;;;15.20;99.50;;;;;;5089461;28;20200;-70
2021/05/22 06:57:56;;;;;;;4.53;1.17;;;15.20;99.50;;;;;;5091301;28;20212;-70
2021/05/22 07:00:23;;;;;;;3.55;1.48;;;15.20;99.80;;;;;;5089533;28;20194;-70
2021/05/22 07:02:49;;;;;;;1.30;0.98;;;15.20;99.80;;;;;;5090213;28;20201;-70
2021/05/22 07:05:16;;;;;;;1.33;0.90;;;15.20;99.90;;;;;;5075700;28;20240;-70
2021/05/22 07:07:43;;;;;;;1.85;1.10;;;15.20;99.90;;;;;;5075559;28;20756;-70
2021/05/22 07:10:12;;;;;;;4.05;1.35;;;15.20;99.90;;;;;;5103323;28;20216;-70
2021/05/22 07:12:38;;;;;;;2.08;1.10;;;15.20;99.90;;;;;;5071032;28;20209;-70
2021/05/22 07:15:07;;;;;;;2.63;1.25;;;15.20;99.90;;;;;;5085127;28;20188;-70
2021/05/22 07:17:33;;;;;;;2.38;1.00;;;15.20;99.90;;;;;;5078957;28;20198;-69
2021/05/22 07:19:59;;;;;;;2.00;1.10;;;15.20;99.90;;;;;;5082297;28;20224;-69
2021/05/22 07:22:26;;;;;;;2.38;1.20;;;15.20;99.90;;;;;;5088794;28;20413;-69
2021/05/22 07:24:52;;;;;;;2.10;1.30;;;15.20;99.90;;;;;;5090519;28;20201;-69
2021/05/22 07:27:20;;;;;;;2.45;1.20;;;15.20;99.90;;;;;;5078270;28;20581;-69
2021/05/22 07:29:47;;;;;;;1.70;1.00;;;15.10;99.90;;;;;;5104397;28;20246;-69
2021/05/22 07:32:13;;;;;;;2.35;1.27;;;15.10;99.90;;;;;;5108677;28;20287;-72
2021/05/22 07:34:40;;;;;;;1.50;1.10;;;15.10;99.90;;;;;;5097195;28;20499;-69
2021/05/22 07:37:06;;;;;;;2.47;1.30;;;15.20;99.90;;;;;;5106881;28;20244;-69
2021/05/22 07:39:33;;;;;;;2.88;1.23;;;15.20;99.90;;;;;;5091724;28;20194;-70
2021/05/22 07:41:59;;;;;;;3.45;1.65;;;15.20;99.90;;;;;;5089027;28;20197;-70
2021/05/22 07:44:26;;;;;;;2.38;1.20;;;15.10;99.90;;;;;;5086955;28;20640;-70
2021/05/22 07:46:52;;;;;;;1.67;1.08;;;15.10;99.90;;;;;;5090372;28;20730;-70
2021/05/22 07:49:19;;;;;;;2.03;1.20;;;15.10;99.90;;;;;;5084922;28;20232;-70
2021/05/22 07:51:46;;;;;;;1.55;1.08;;;15.10;99.90;;;;;;5074679;28;20254;-70
2021/05/22 07:54:12;;;;;;;3.55;1.33;;;15.10;99.90;;;;;;5084344;28;20294;-69
2021/05/22 07:56:39;;;;;;;1.80;1.00;;;15.10;99.90;;;;;;5071422;28;20201;-69
2021/05/22 07:59:05;;;;;;;3.38;1.08;;;15.10;99.90;;;;;;5076690;28;20649;-69
2021/05/22 08:01:33;;;;;;;2.03;0.80;;;15.10;99.90;;;;;;5087574;28;20262;-69
2021/05/22 08:04:00;;;;;;;5.55;1.27;;;15.10;99.90;;;;;;5089661;28;20197;-69
2021/05/22 08:06:26;;;;;;;1.55;1.10;;;15.10;99.90;;;;;;5091205;28;20208;-69
2021/05/22 08:08:52;;;;;;;4.15;1.80;;;15.10;99.90;;;;;;5091111;28;20315;-69
2021/05/22 08:11:18;;;;;;;2.40;1.75;;;15.10;99.90;;;;;;5089807;28;20205;-70
2021/05/22 08:13:45;;;;;;;1.45;0.95;;;15.10;99.90;;;;;;5090389;28;20190;-69
2021/05/22 08:16:11;;;;;;;3.15;0.98;;;15.10;99.90;;;;;;5090584;28;20208;-70
2021/05/22 08:18:38;;;;;;;1.40;1.00;;;15.10;99.90;;;;;;5085938;28;20764;-69
2021/05/22 08:21:05;;;;;;;1.90;0.90;;;15.10;99.90;;;;;;5071140;28;20205;-70
2021/05/22 08:23:31;;;;;;;4.22;1.08;;;15.10;99.90;;;;;;5078720;28;20189;-70
2021/05/22 08:25:57;;;;;;;1.25;1.00;;;15.10;99.90;;;;;;5087271;28;20237;-70
2021/05/22 08:28:27;;;;;;;1.45;1.15;;;15.10;99.90;;;;;;5089647;28;20252;-70
2021/05/22 08:30:53;;;;;;;2.22;1.25;;;15.10;99.90;;;;;;5089859;28;20686;-70
2021/05/22 08:33:19;;;;;;;2.08;1.30;;;15.10;99.90;;;;;;5089172;28;20189;-70
2021/05/22 08:35:47;;;;;;;1.92;1.08;;;15.10;99.90;;;;;;5087268;28;20194;-70
2021/05/22 08:38:13;;;;;;;2.20;1.50;;;15.10;99.90;;;;;;5088443;28;20193;-70
2021/05/22 08:40:39;;;;;;;2.38;1.15;;;15.10;99.90;;;;;;5069382;28;20213;-70
2021/05/22 08:43:05;;;;;;;1.42;1.10;;;15.00;99.90;;;;;;5085258;28;20808;-71
2021/05/22 08:45:32;;;;;;;2.47;1.10;;;15.00;99.90;;;;;;5089347;28;20198;-71
2021/05/22 08:47:59;;;;;;;1.80;1.00;;;15.00;99.90;;;;;;5089223;28;20193;-71
2021/05/22 08:50:25;;;;;;;1.90;1.20;;;15.00;99.90;;;;;;5088936;28;20224;-71
2021/05/22 08:52:54;;;;;;;1.23;0.93;;;15.00;99.90;;;;;;5086130;28;20205;-71
2021/05/22 08:55:21;;;;;;;3.15;1.50;;;15.00;99.90;;;;;;5088631;28;20243;-70
2021/05/22 08:57:48;;;;;;;2.13;1.05;;;15.00;99.90;;;;;;5082111;28;20198;-71
2021/05/22 09:00:16;;;;;;;2.78;1.00;;;15.00;99.90;;;;;;5083647;28;20194;-71
2021/05/22 09:02:44;;;;;;;4.07;2.95;;;15.00;99.90;;;;;;5086130;28;20254;-71
2021/05/22 09:05:18;;;;;;;7.25;1.15;;;15.00;99.90;;;;;;5086680;28;20659;-71
2021/05/22 09:07:46;;;;;;;3.65;1.10;;;15.00;99.90;;;;;;5089485;28;20201;-71
2021/05/22 09:10:17;;;;;;;2.28;1.00;;;15.00;99.90;;;;;;5088189;28;20218;-70
2021/05/22 09:12:45;;;;;;;2.15;1.10;;;15.00;99.90;;;;;;5088181;28;20200;-70
2021/05/22 09:15:13;;;;;;;6.28;0.85;;;15.00;99.90;;;;;;5087691;28;20592;-70
2021/05/22 09:17:46;;;;;;;2.17;1.08;;;15.00;99.90;;;;;;5088379;28;20205;-70
2021/05/22 09:20:20;;;;;;;2.05;1.00;;;15.00;99.90;;;;;;5086106;28;20193;-71
2021/05/22 09:22:59;;;;;;;2.00;1.05;;;15.00;99.90;;;;;;5087409;28;20257;-70
2021/05/22 09:25:27;;;;;;;1.05;0.90;;;15.00;99.90;;;;;;5085909;28;20205;-70
2021/05/22 09:27:55;;;;;;;2.65;0.80;;;15.00;99.90;;;;;;5083679;28;20229;-70
2021/05/22 09:30:23;;;;;;;7.50;1.45;;;15.00;99.90;;;;;;5068696;28;20221;-71
2021/05/22 09:32:50;;;;;;;1.10;0.90;;;15.00;99.90;;;;;;5068803;28;20638;-70
2021/05/22 09:35:17;;;;;;;1.92;1.10;;;15.00;99.90;;;;;;5068520;28;20217;-71
2021/05/22 09:37:46;;;;;;;0.90;0.70;;;15.00;99.90;;;;;;5076569;28;20202;-70
2021/05/22 09:40:14;;;;;;;2.00;1.10;;;14.90;99.90;;;;;;5088946;28;20579;-70
2021/05/22 09:42:42;;;;;;;2.55;1.17;;;15.00;99.90;;;;;;5076917;28;20205;-69
2021/05/22 09:45:28;;;;;;;2.20;1.13;;;15.00;99.90;;;;;;5077000;28;20209;-70
2021/05/22 09:47:56;;;;;;;3.38;1.10;;;14.90;99.90;;;;;;5068538;28;20201;-69
2021/05/22 09:50:28;;;;;;;3.50;1.80;;;14.90;99.90;;;;;;5079851;28;20209;-71
2021/05/22 09:52:54;;;;;;;3.35;1.30;;;14.90;99.90;;;;;;5087357;28;20193;-70
2021/05/22 09:55:22;;;;;;;1.88;1.40;;;14.90;99.90;;;;;;5071034;28;20239;-70
2021/05/22 09:57:51;;;;;;;1.98;1.10;;;14.90;99.90;;;;;;5083740;28;20506;-70
2021/05/22 10:00:19;;;;;;;2.80;1.15;;;14.80;99.90;;;;;;5087999;28;20702;-70
2021/05/22 10:02:46;;;;;;;1.50;0.95;;;14.80;99.90;;;;;;5077454;28;20193;-70
2021/05/22 10:05:14;;;;;;;1.73;1.13;;;14.70;99.90;;;;;;5078139;28;20201;-70
2021/05/22 10:07:41;;;;;;;1.42;1.02;;;14.80;99.90;;;;;;5088383;28;20194;-71
2021/05/22 10:10:09;;;;;;;1.20;1.00;;;14.70;99.90;;;;;;5083345;28;20220;-70
2021/05/22 10:12:37;;;;;;;3.45;1.10;;;14.70;99.90;;;;;;5091461;28;20227;-70
2021/05/22 10:15:05;;;;;;;1.90;1.10;;;14.70;99.90;;;;;;5091898;28;20201;-71
2021/05/22 10:17:32;;;;;;;1.50;1.20;;;14.70;99.90;;;;;;5091087;28;20198;-71
2021/05/22 10:19:59;;;;;;;3.00;1.02;;;14.70;99.90;;;;;;5092333;28;20671;-70
2021/05/22 10:22:25;;;;;;;2.30;1.05;;;14.70;99.90;;;;;;5092310;28;20202;-70
2021/05/22 10:24:53;;;;;;;1.80;1.02;;;14.80;99.90;;;;;;5092114;28;20221;-69
2021/05/22 10:27:20;;;;;;;1.13;0.90;;;14.70;99.90;;;;;;5085758;28;20306;-69
2021/05/22 10:29:47;;;;;;;1.02;0.80;;;14.80;99.90;;;;;;5090066;28;20213;-71
2021/05/22 10:32:21;;;;;;;1.80;0.90;;;14.90;99.90;;;;;;5090449;28;20529;-71
2021/05/22 10:34:49;;;;;;;1.38;1.20;;;14.90;99.90;;;;;;5086363;28;20207;-70
2021/05/22 10:37:37;;;;;;;1.45;0.90;;;14.90;99.90;;;;;;5091479;28;20280;-70
2021/05/22 10:40:05;;;;;;;2.65;1.20;;;14.90;99.90;;;;;;5090999;28;20542;-70
2021/05/22 10:42:46;;;;;;;2.35;1.02;;;14.90;99.90;;;;;;5091748;28;20716;-70
2021/05/22 10:45:28;;;;;;;1.65;1.15;;;14.90;99.90;;;;;;5088734;28;20197;-71
2021/05/22 10:47:55;;;;;;;1.88;1.10;;;14.90;99.90;;;;;;5084853;28;20747;-71
2021/05/22 10:50:46;;;;;;;2.30;1.25;;;15.00;99.90;;;;;;5088888;28;20213;-71
2021/05/22 10:53:29;;;;;;;1.90;1.30;;;15.00;99.90;;;;;;5078616;28;20204;-70
2021/05/22 10:56:10;;;;;;;2.85;1.15;;;15.00;99.90;;;;;;5091421;28;20561;-70
2021/05/22 10:58:37;;;;;;;2.83;1.00;;;15.00;99.90;;;;;;5083813;28;20228;-70
2021/05/22 11:01:39;;;;;;;1.63;1.10;;;15.00;99.90;;;;;;5071502;28;20202;-70
2021/05/22 11:04:26;;;;;;;3.05;0.90;;;15.00;99.90;;;;;;4999113;28;20552;-69
2021/05/22 11:06:54;;;;;;;1.65;0.82;;;14.90;99.90;;;;;;4989681;28;20228;-69
2021/05/22 11:09:48;;;;;;;2.35;1.25;;;14.90;99.90;;;;;;5039200;28;20248;-70
2021/05/22 11:12:40;;;;;;;2.38;0.98;;;14.80;99.90;;;;;;5071283;28;20244;-70
2021/05/22 11:15:35;;;;;;;3.90;1.55;;;14.80;99.90;;;;;;5070976;28;20194;-70
2021/05/22 11:18:03;;;;;;;2.47;1.10;;;14.80;99.90;;;;;;5070373;28;20198;-70
2021/05/22 11:20:29;;;;;;;2.40;1.23;;;14.80;99.90;;;;;;5071552;28;20248;-68
2021/05/22 11:23:01;;;;;;;2.85;1.08;;;14.80;99.90;;;;;;5070671;28;20630;-68
2021/05/22 11:25:44;;;;;;;1.67;0.93;;;14.80;99.90;;;;;;5070918;28;20220;-67
2021/05/22 11:28:17;;;;;;;3.30;1.63;;;14.90;99.90;;;;;;5073333;28;20734;-68
2021/05/22 11:30:45;;;;;;;1.90;1.20;;;14.90;99.90;;;;;;5091171;28;20222;-69
2021/05/22 11:33:28;;;;;;;2.08;1.25;;;15.00;99.90;;;;;;5071758;28;20198;-68
2021/05/22 11:35:56;;;;;;;3.05;1.20;;;15.00;99.90;;;;;;5075165;28;20197;-69
2021/05/22 11:38:37;;;;;;;3.80;1.10;;;14.90;99.90;;;;;;5077826;28;20197;-69
2021/05/22 11:41:08;;;;;;;1.35;1.00;;;14.80;99.90;;;;;;5073649;28;20259;-70
2021/05/22 11:43:36;;;;;;;4.63;1.42;;;14.90;99.90;;;;;;5070628;28;20198;-69
2021/05/22 11:46:04;;;;;;;3.92;1.10;;;14.80;99.90;;;;;;5084197;28;20576;-69
2021/05/22 11:48:33;;;;;;;2.88;1.30;;;14.80;99.90;;;;;;5090879;28;20202;-69
2021/05/22 11:51:09;;;;;;;2.50;1.30;;;14.80;99.90;;;;;;5090736;28;20266;-69
2021/05/22 11:53:36;;;;;;;2.58;1.10;;;14.80;99.90;;;;;;5082393;28;20205;-69
2021/05/22 11:56:04;;;;;;;1.33;0.90;;;14.80;99.90;;;;;;5088871;28;20652;-69
2021/05/22 11:58:31;;;;;;;3.53;1.40;;;14.90;99.90;;;;;;5090696;28;20227;-69
2021/05/22 12:01:11;;;;;;;2.05;1.05;;;14.90;99.90;;;;;;5086614;28;20523;-69
2021/05/22 12:03:38;;;;;;;5.05;2.03;;;14.80;99.90;;;;;;5090375;28;20182;-69
2021/05/22 12:06:05;;;;;;;1.98;1.23;;;14.80;99.90;;;;;;5084243;28;20641;-69
2021/05/22 12:08:33;;;;;;;1.92;1.20;;;14.90;99.90;;;;;;5082151;28;20190;-68
2021/05/22 12:11:09;;;;;;;1.67;1.00;;;14.90;99.90;;;;;;5075320;28;20259;-69
2021/05/22 12:13:51;;;;;;;1.30;1.00;;;14.90;99.90;;;;;;5069669;28;20209;-69
2021/05/22 12:16:17;;;;;;;2.75;1.40;;;14.90;99.90;;;;;;5069847;28;20791;-68
2021/05/22 12:18:44;;;;;;;5.82;1.20;;;14.90;99.90;;;;;;5069971;28;20217;-69
2021/05/22 12:21:11;;;;;;;2.33;1.10;;;15.00;99.90;;;;;;5074442;28;20193;-69
2021/05/22 12:23:37;;;;;;;3.60;1.08;;;15.00;99.90;;;;;;5089795;28;20190;-69
2021/05/22 12:26:07;;;;;;;2.17;1.00;;;15.00;99.90;;;;;;5074592;28;20638;-69
2021/05/22 12:28:33;;;;;;;2.00;1.50;;;15.00;99.90;;;;;;5088542;28;20290;-69
2021/05/22 12:31:00;;;;;;;2.03;1.10;;;15.10;99.90;;;;;;5077354;28;20201;-69
2021/05/22 12:33:28;;;;;;;2.78;1.40;;;15.10;99.90;;;;;;5079394;28;20198;-69
2021/05/22 12:36:02;;;;;;;2.95;1.60;;;15.10;99.90;;;;;;5069401;28;20524;-69
2021/05/22 12:38:37;;;;;;;2.95;1.00;;;15.00;99.90;;;;;;5070475;28;20685;-70
2021/05/22 12:41:03;;;;;;;2.53;1.50;;;15.00;99.90;;;;;;5069076;28;20198;-69
2021/05/22 12:43:41;;;;;;;2.17;1.30;;;15.00;99.90;;;;;;5069561;28;20201;-70
2021/05/22 12:46:21;;;;;;;7.07;1.83;;;15.00;99.90;;;;;;5069038;28;20189;-69
2021/05/22 12:48:48;;;;;;;2.08;1.02;;;15.00;99.90;;;;;;5069053;28;20530;-70
2021/05/22 12:51:19;;;;;;;1.63;1.25;;;15.00;99.90;;;;;;5068258;28;20256;-69
2021/05/22 12:53:46;;;;;;;4.93;1.40;;;15.00;99.90;;;;;;5068643;28;20634;-69